sensor_id;sensor_type;location;lat;lon;timestamp;temperature;humidity
38458;DHT22;24239;48.058;10.486;2023-04-24T00:00:33;8.70;99.90
38458;DHT22;24239;48.058;10.486;2023-04-24T00:02:58;8.70;99.90
38458;DHT22;24239;48.058;10.486;2023-04-24T00:05:27;8.70;99.90
38458;DHT22;24239;48.058;10.486;2023-04-24T00:07:53;8.70;99.90
38458;DHT22;24239;48.058;10.486;2023-04-24T00:10:20;8.60;99.90
38458;DHT22;24239;48.058;10.486;2023-04-24T00:12:45;8.70;99.90
38458;DHT22;24239;48.058;10.486;2023-04-24T00:15:11;8.70;99.90
38458;DHT22;24239;48.058;10.486;2023-04-24T00:17:37;8.70;99.90
38458;DHT22;24239;48.058;10.486;2023-04-24T00:20:03;8.70;99.90
38458;DHT22;24239;48.058;10.486;2023-04-24T00:22:30;8.70;99.90
38458;DHT22;24239;48.058;10.486;2023-04-24T00:24:56;8.70;99.90
38458;DHT22;24239;48.058;10.486;2023-04-24T00:27:22;8.70;99.90
38458;DHT22;24239;48.058;10.486;2023-04-24T00:29:48;8.60;99.90
38458;DHT22;24239;48.058;10.486;2023-04-24T00:32:14;8.60;99.90
38458;DHT22;24239;48.058;10.486;2023-04-24T00:34:40;8.50;99.90
38458;DHT22;24239;48.058;10.486;2023-04-24T00:37:05;8.60;99.90
38458;DHT22;24239;48.058;10.486;2023-04-24T00:39:31;8.60;99.90
38458;DHT22;24239;48.058;10.486;2023-04-24T00:41:57;8.50;99.90
38458;DHT22;24239;48.058;10.486;2023-04-24T00:44:26;8.70;99.90
38458;DHT22;24239;48.058;10.486;2023-04-24T00:46:53;8.60;99.90
38458;DHT22;24239;48.058;10.486;2023-04-24T00:49:23;8.70;99.90
38458;DHT22;24239;48.058;10.486;2023-04-24T00:51:51;8.60;99.90
38458;DHT22;24239;48.058;10.486;2023-04-24T00:54:17;8.60;99.90
38458;DHT22;24239;48.058;10.486;2023-04-24T00:56:42;8.60;99.90
38458;DHT22;24239;48.058;10.486;2023-04-24T00:59:09;8.60;99.90
38458;DHT22;24239;48.058;10.486;2023-04-24T01:01:35;8.60;99.90
38458;DHT22;24239;48.058;10.486;2023-04-24T01:04:01;8.60;99.90
38458;DHT22;24239;48.058;10.486;2023-04-24T01:06:27;8.60;99.90
38458;DHT22;24239;48.058;10.486;2023-04-24T01:08:53;8.60;99.90
38458;DHT22;24239;48.058;10.486;2023-04-24T01:11:19;8.70;99.90
38458;DHT22;24239;48.058;10.486;2023-04-24T01:13:46;8.60;99.90
38458;DHT22;24239;48.058;10.486;2023-04-24T01:16:13;8.40;99.90
38458;DHT22;24239;48.058;10.486;2023-04-24T01:18:39;8.60;99.90
38458;DHT22;24239;48.058;10.486;2023-04-24T01:21:04;8.60;99.90
38458;DHT22;24239;48.058;10.486;2023-04-24T01:23:32;8.60;99.90
38458;DHT22;24239;48.058;10.486;2023-04-24T01:25:57;8.60;99.90
38458;DHT22;24239;48.058;10.486;2023-04-24T01:28:23;8.60;99.90
38458;DHT22;24239;48.058;10.486;2023-04-24T01:30:49;8.60;99.90
38458;DHT22;24239;48.058;10.486;2023-04-24T01:33:15;8.60;99.90
38458;DHT22;24239;48.058;10.486;2023-04-24T01:35:44;8.60;99.90
38458;DHT22;24239;48.058;10.486;2023-04-24T01:38:09;8.70;99.90
38458;DHT22;24239;48.058;10.486;2023-04-24T01:40:36;8.70;99.90
38458;DHT22;24239;48.058;10.486;2023-04-24T01:43:01;8.70;99.90
38458;DHT22;24239;48.058;10.486;2023-04-24T01:45:27;8.70;99.90
38458;DHT22;24239;48.058;10.486;2023-04-24T01:47:53;8.70;99.90
38458;DHT22;24239;48.058;10.486;2023-04-24T01:50:19;8.80;99.90
38458;DHT22;24239;48.058;10.486;2023-04-24T01:52:48;8.70;99.90
38458;DHT22;24239;48.058;10.486;2023-04-24T01:55:13;8.60;99.90
38458;DHT22;24239;48.058;10.486;2023-04-24T01:57:39;8.60;99.90
38458;DHT22;24239;48.058;10.486;2023-04-24T02:00:05;8.60;99.90
38458;DHT22;24239;48.058;10.486;2023-04-24T02:02:32;8.60;99.90
38458;DHT22;24239;48.058;10.486;2023-04-24T02:04:57;8.60;99.90
38458;DHT22;24239;48.058;10.486;2023-04-24T02:07:23;8.60;99.90
38458;DHT22;24239;48.058;10.486;2023-04-24T02:09:49;8.60;99.90
38458;DHT22;24239;48.058;10.486;2023-04-24T02:12:15;8.60;99.90
38458;DHT22;24239;48.058;10.486;2023-04-24T02:14:43;8.70;99.90
38458;DHT22;24239;48.058;10.486;2023-04-24T02:17:08;8.60;99.90
38458;DHT22;24239;48.058;10.486;2023-04-24T02:19:35;8.60;99.90
38458;DHT22;24239;48.058;10.486;2023-04-24T02:22:00;8.50;99.90
38458;DHT22;24239;48.058;10.486;2023-04-24T02:24:26;8.60;99.90
38458;DHT22;24239;48.058;10.486;2023-04-24T02:26:51;8.60;99.90
38458;DHT22;24239;48.058;10.486;2023-04-24T02:29:17;8.50;99.90
38458;DHT22;24239;48.058;10.486;2023-04-24T02:31:43;8.60;99.90
38458;DHT22;24239;48.058;10.486;2023-04-24T02:34:08;8.60;99.90
38458;DHT22;24239;48.058;10.486;2023-04-24T02:36:34;8.60;99.90
38458;DHT22;24239;48.058;10.486;2023-04-24T02:39:02;8.50;99.90
38458;DHT22;24239;48.058;10.486;2023-04-24T02:41:29;8.50;99.90
38458;DHT22;24239;48.058;10.486;2023-04-24T02:44:00;8.50;99.90
38458;DHT22;24239;48.058;10.486;2023-04-24T02:46:25;8.40;99.90
38458;DHT22;24239;48.058;10.486;2023-04-24T02:48:51;8.50;99.90
38458;DHT22;24239;48.058;10.486;2023-04-24T02:51:17;8.50;99.90
38458;DHT22;24239;48.058;10.486;2023-04-24T02:53:42;8.50;99.90
38458;DHT22;24239;48.058;10.486;2023-04-24T02:56:08;8.70;99.90
38458;DHT22;24239;48.058;10.486;2023-04-24T02:58:34;8.50;99.90
38458;DHT22;24239;48.058;10.486;2023-04-24T03:01:00;8.50;99.90
38458;DHT22;24239;48.058;10.486;2023-04-24T03:03:26;8.50;99.90
38458;DHT22;24239;48.058;10.486;2023-04-24T03:05:52;8.50;99.90
38458;DHT22;24239;48.058;10.486;2023-04-24T03:08:21;8.50;99.90
38458;DHT22;24239;48.058;10.486;2023-04-24T03:10:46;8.50;99.90
38458;DHT22;24239;48.058;10.486;2023-04-24T03:13:12;8.40;99.90
38458;DHT22;24239;48.058;10.486;2023-04-24T03:15:38;8.40;99.90
38458;DHT22;24239;48.058;10.486;2023-04-24T03:18:03;8.40;99.90
38458;DHT22;24239;48.058;10.486;2023-04-24T03:20:29;8.50;99.90
38458;DHT22;24239;48.058;10.486;2023-04-24T03:22:55;8.60;99.90
38458;DHT22;24239;48.058;10.486;2023-04-24T03:25:21;8.50;99.90
38458;DHT22;24239;48.058;10.486;2023-04-24T03:27:47;8.40;99.90
38458;DHT22;24239;48.058;10.486;2023-04-24T03:30:13;8.40;99.90
38458;DHT22;24239;48.058;10.486;2023-04-24T03:32:38;8.50;99.90
38458;DHT22;24239;48.058;10.486;2023-04-24T03:35:05;8.40;99.90
38458;DHT22;24239;48.058;10.486;2023-04-24T03:37:32;8.50;99.90
38458;DHT22;24239;48.058;10.486;2023-04-24T03:39:58;8.50;99.90
38458;DHT22;24239;48.058;10.486;2023-04-24T03:42:23;8.50;99.90
38458;DHT22;24239;48.058;10.486;2023-04-24T03:44:49;8.50;99.90
38458;DHT22;24239;48.058;10.486;2023-04-24T03:47:20;8.50;99.90
38458;DHT22;24239;48.058;10.486;2023-04-24T03:49:46;8.40;99.90
38458;DHT22;24239;48.058;10.486;2023-04-24T03:52:11;8.40;99.90
38458;DHT22;24239;48.058;10.486;2023-04-24T03:54:37;8.50;99.90
38458;DHT22;24239;48.058;10.486;2023-04-24T03:57:05;8.40;99.90
38458;DHT22;24239;48.058;10.486;2023-04-24T03:59:31;8.40;99.90
38458;DHT22;24239;48.058;10.486;2023-04-24T04:01:56;8.40;99.90
38458;DHT22;24239;48.058;10.486;2023-04-24T04:04:22;8.30;99.90
38458;DHT22;24239;48.058;10.486;2023-04-24T04:06:48;8.30;99.90
38458;DHT22;24239;48.058;10.486;2023-04-24T04:09:17;8.30;99.90
38458;DHT22;24239;48.058;10.486;2023-04-24T04:11:42;8.30;99.90
38458;DHT22;24239;48.058;10.486;2023-04-24T04:14:08;8.20;99.90
38458;DHT22;24239;48.058;10.486;2023-04-24T04:16:34;8.30;99.90
38458;DHT22;24239;48.058;10.486;2023-04-24T04:19:01;8.30;99.90
38458;DHT22;24239;48.058;10.486;2023-04-24T04:21:28;8.40;99.90
38458;DHT22;24239;48.058;10.486;2023-04-24T04:23:54;8.40;99.90
38458;DHT22;24239;48.058;10.486;2023-04-24T04:26:19;8.30;99.90
38458;DHT22;24239;48.058;10.486;2023-04-24T04:28:46;8.40;99.90
38458;DHT22;24239;48.058;10.486;2023-04-24T04:31:13;8.30;99.90
38458;DHT22;24239;48.058;10.486;2023-04-24T04:33:38;8.30;99.90
38458;DHT22;24239;48.058;10.486;2023-04-24T04:36:04;8.30;99.90
38458;DHT22;24239;48.058;10.486;2023-04-24T04:38:30;8.30;99.90
38458;DHT22;24239;48.058;10.486;2023-04-24T04:40:58;8.40;99.90
38458;DHT22;24239;48.058;10.486;2023-04-24T04:43:24;8.30;99.90
38458;DHT22;24239;48.058;10.486;2023-04-24T04:45:52;8.40;99.90
38458;DHT22;24239;48.058;10.486;2023-04-24T04:48:19;8.30;99.90
38458;DHT22;24239;48.058;10.486;2023-04-24T04:50:45;8.40;99.90
38458;DHT22;24239;48.058;10.486;2023-04-24T04:53:11;8.40;99.90
38458;DHT22;24239;48.058;10.486;2023-04-24T04:55:37;8.40;99.90
38458;DHT22;24239;48.058;10.486;2023-04-24T04:58:02;8.30;99.90
38458;DHT22;24239;48.058;10.486;2023-04-24T05:00:28;8.40;99.90
38458;DHT22;24239;48.058;10.486;2023-04-24T05:03:02;8.30;99.90
38458;DHT22;24239;48.058;10.486;2023-04-24T05:05:28;8.30;99.90
38458;DHT22;24239;48.058;10.486;2023-04-24T05:07:54;8.40;99.90
38458;DHT22;24239;48.058;10.486;2023-04-24T05:10:20;8.40;99.90
38458;DHT22;24239;48.058;10.486;2023-04-24T05:12:45;8.40;99.90
38458;DHT22;24239;48.058;10.486;2023-04-24T05:15:11;8.40;99.90
38458;DHT22;24239;48.058;10.486;2023-04-24T05:17:36;8.40;99.90
38458;DHT22;24239;48.058;10.486;2023-04-24T05:20:06;8.40;99.90
38458;DHT22;24239;48.058;10.486;2023-04-24T05:22:32;8.40;99.90
38458;DHT22;24239;48.058;10.486;2023-04-24T05:24:58;8.40;99.90
38458;DHT22;24239;48.058;10.486;2023-04-24T05:27:24;8.50;99.90
38458;DHT22;24239;48.058;10.486;2023-04-24T05:29:49;8.50;99.90
38458;DHT22;24239;48.058;10.486;2023-04-24T05:32:18;8.50;99.90
38458;DHT22;24239;48.058;10.486;2023-04-24T05:34:43;8.50;99.90
38458;DHT22;24239;48.058;10.486;2023-04-24T05:37:09;8.50;99.90
38458;DHT22;24239;48.058;10.486;2023-04-24T05:39:35;8.60;99.90
38458;DHT22;24239;48.058;10.486;2023-04-24T05:42:01;8.70;99.90
38458;DHT22;24239;48.058;10.486;2023-04-24T05:44:27;8.70;99.90
38458;DHT22;24239;48.058;10.486;2023-04-24T05:46:52;8.70;99.90
38458;DHT22;24239;48.058;10.486;2023-04-24T05:49:18;8.70;99.90
38458;DHT22;24239;48.058;10.486;2023-04-24T05:51:44;8.70;99.90
38458;DHT22;24239;48.058;10.486;2023-04-24T05:54:10;8.80;99.90
38458;DHT22;24239;48.058;10.486;2023-04-24T05:56:39;8.80;99.90
38458;DHT22;24239;48.058;10.486;2023-04-24T05:59:05;8.80;99.90
38458;DHT22;24239;48.058;10.486;2023-04-24T06:01:31;8.80;99.90
38458;DHT22;24239;48.058;10.486;2023-04-24T06:03:57;8.80;99.90
38458;DHT22;24239;48.058;10.486;2023-04-24T06:06:23;8.90;99.90
38458;DHT22;24239;48.058;10.486;2023-04-24T06:08:49;9.00;99.90
38458;DHT22;24239;48.058;10.486;2023-04-24T06:11:15;8.90;99.90
38458;DHT22;24239;48.058;10.486;2023-04-24T06:13:41;9.00;99.90
38458;DHT22;24239;48.058;10.486;2023-04-24T06:16:06;9.00;99.90
38458;DHT22;24239;48.058;10.486;2023-04-24T06:18:32;9.10;99.90
38458;DHT22;24239;48.058;10.486;2023-04-24T06:20:58;9.10;99.90
38458;DHT22;24239;48.058;10.486;2023-04-24T06:23:23;9.20;99.90
38458;DHT22;24239;48.058;10.486;2023-04-24T06:25:49;9.30;99.90
38458;DHT22;24239;48.058;10.486;2023-04-24T06:28:15;9.40;99.90
38458;DHT22;24239;48.058;10.486;2023-04-24T06:30:41;9.40;99.90
38458;DHT22;24239;48.058;10.486;2023-04-24T06:33:06;9.50;99.90
38458;DHT22;24239;48.058;10.486;2023-04-24T06:35:32;9.50;99.90
38458;DHT22;24239;48.058;10.486;2023-04-24T06:37:58;9.40;99.90
38458;DHT22;24239;48.058;10.486;2023-04-24T06:40:26;9.50;99.90
38458;DHT22;24239;48.058;10.486;2023-04-24T06:42:51;9.60;99.90
38458;DHT22;24239;48.058;10.486;2023-04-24T06:45:17;9.50;99.90
38458;DHT22;24239;48.058;10.486;2023-04-24T06:47:42;9.60;99.90
38458;DHT22;24239;48.058;10.486;2023-04-24T06:50:08;9.70;99.90
38458;DHT22;24239;48.058;10.486;2023-04-24T06:52:34;9.60;99.90
38458;DHT22;24239;48.058;10.486;2023-04-24T06:55:03;9.70;99.90
38458;DHT22;24239;48.058;10.486;2023-04-24T06:57:29;9.80;99.90
38458;DHT22;24239;48.058;10.486;2023-04-24T06:59:55;9.70;99.90
38458;DHT22;24239;48.058;10.486;2023-04-24T07:02:20;9.70;99.90
38458;DHT22;24239;48.058;10.486;2023-04-24T07:04:46;9.70;99.90
38458;DHT22;24239;48.058;10.486;2023-04-24T07:07:14;9.60;99.90
38458;DHT22;24239;48.058;10.486;2023-04-24T07:09:40;9.50;99.90
38458;DHT22;24239;48.058;10.486;2023-04-24T07:12:10;9.60;99.90
38458;DHT22;24239;48.058;10.486;2023-04-24T07:14:36;9.70;99.90
38458;DHT22;24239;48.058;10.486;2023-04-24T07:17:02;9.60;99.90
38458;DHT22;24239;48.058;10.486;2023-04-24T07:19:28;9.40;99.90
38458;DHT22;24239;48.058;10.486;2023-04-24T07:21:55;9.00;99.90
38458;DHT22;24239;48.058;10.486;2023-04-24T07:24:20;8.30;99.90
38458;DHT22;24239;48.058;10.486;2023-04-24T07:26:46;7.70;99.90
38458;DHT22;24239;48.058;10.486;2023-04-24T07:29:12;7.20;99.90
38458;DHT22;24239;48.058;10.486;2023-04-24T07:31:37;6.80;99.90
38458;DHT22;24239;48.058;10.486;2023-04-24T07:34:03;6.70;99.90
38458;DHT22;24239;48.058;10.486;2023-04-24T07:36:29;6.80;99.90
38458;DHT22;24239;48.058;10.486;2023-04-24T07:38:55;6.30;99.90
38458;DHT22;24239;48.058;10.486;2023-04-24T07:41:21;6.50;99.90
38458;DHT22;24239;48.058;10.486;2023-04-24T07:43:48;6.50;99.90
38458;DHT22;24239;48.058;10.486;2023-04-24T07:46:13;6.50;99.90
38458;DHT22;24239;48.058;10.486;2023-04-24T07:48:39;6.50;99.90
38458;DHT22;24239;48.058;10.486;2023-04-24T07:51:05;6.50;99.90
38458;DHT22;24239;48.058;10.486;2023-04-24T07:53:30;6.60;99.90
38458;DHT22;24239;48.058;10.486;2023-04-24T07:55:58;6.60;99.90
38458;DHT22;24239;48.058;10.486;2023-04-24T07:58:24;6.80;99.90
38458;DHT22;24239;48.058;10.486;2023-04-24T08:00:50;6.90;99.90
38458;DHT22;24239;48.058;10.486;2023-04-24T08:03:16;7.20;99.90
38458;DHT22;24239;48.058;10.486;2023-04-24T08:05:45;7.40;99.90
38458;DHT22;24239;48.058;10.486;2023-04-24T08:08:10;7.70;99.90
38458;DHT22;24239;48.058;10.486;2023-04-24T08:10:36;8.00;99.90
38458;DHT22;24239;48.058;10.486;2023-04-24T08:13:02;8.20;99.90
38458;DHT22;24239;48.058;10.486;2023-04-24T08:15:35;8.40;99.90
38458;DHT22;24239;48.058;10.486;2023-04-24T08:18:01;8.70;99.90
38458;DHT22;24239;48.058;10.486;2023-04-24T08:20:26;8.90;99.90
38458;DHT22;24239;48.058;10.486;2023-04-24T08:22:52;8.90;99.90
38458;DHT22;24239;48.058;10.486;2023-04-24T08:25:22;9.10;99.90
38458;DHT22;24239;48.058;10.486;2023-04-24T08:27:49;9.20;99.90
38458;DHT22;24239;48.058;10.486;2023-04-24T08:30:14;9.30;99.90
38458;DHT22;24239;48.058;10.486;2023-04-24T08:32:40;9.40;99.90
38458;DHT22;24239;48.058;10.486;2023-04-24T08:35:09;9.50;99.90
38458;DHT22;24239;48.058;10.486;2023-04-24T08:37:35;9.50;99.90
38458;DHT22;24239;48.058;10.486;2023-04-24T08:40:02;9.70;99.90
38458;DHT22;24239;48.058;10.486;2023-04-24T08:42:31;9.60;99.90
38458;DHT22;24239;48.058;10.486;2023-04-24T08:45:01;9.50;99.90
38458;DHT22;24239;48.058;10.486;2023-04-24T08:47:30;9.60;99.90
38458;DHT22;24239;48.058;10.486;2023-04-24T08:49:56;9.70;99.90
38458;DHT22;24239;48.058;10.486;2023-04-24T08:52:23;9.90;99.90
38458;DHT22;24239;48.058;10.486;2023-04-24T08:54:48;10.10;99.90
38458;DHT22;24239;48.058;10.486;2023-04-24T08:57:14;10.10;99.90
38458;DHT22;24239;48.058;10.486;2023-04-24T08:59:43;10.20;99.90
38458;DHT22;24239;48.058;10.486;2023-04-24T09:02:09;10.30;99.90
38458;DHT22;24239;48.058;10.486;2023-04-24T09:04:35;10.40;99.90
38458;DHT22;24239;48.058;10.486;2023-04-24T09:07:02;10.60;99.90
38458;DHT22;24239;48.058;10.486;2023-04-24T09:09:30;10.60;99.90
38458;DHT22;24239;48.058;10.486;2023-04-24T09:11:56;10.80;99.90
38458;DHT22;24239;48.058;10.486;2023-04-24T09:14:23;10.90;99.90
38458;DHT22;24239;48.058;10.486;2023-04-24T09:16:49;11.00;99.90
38458;DHT22;24239;48.058;10.486;2023-04-24T09:19:15;10.90;99.90
38458;DHT22;24239;48.058;10.486;2023-04-24T09:21:40;11.10;99.90
38458;DHT22;24239;48.058;10.486;2023-04-24T09:24:17;11.20;99.90
38458;DHT22;24239;48.058;10.486;2023-04-24T09:26:43;11.30;99.90
38458;DHT22;24239;48.058;10.486;2023-04-24T09:29:13;10.80;99.90
38458;DHT22;24239;48.058;10.486;2023-04-24T09:31:39;9.00;99.90
38458;DHT22;24239;48.058;10.486;2023-04-24T09:34:05;7.80;99.90
38458;DHT22;24239;48.058;10.486;2023-04-24T09:39:02;6.50;99.90
38458;DHT22;24239;48.058;10.486;2023-04-24T09:41:28;6.60;99.90
38458;DHT22;24239;48.058;10.486;2023-04-24T09:43:56;6.50;99.90
38458;DHT22;24239;48.058;10.486;2023-04-24T09:46:30;6.60;99.90
38458;DHT22;24239;48.058;10.486;2023-04-24T09:48:57;6.70;99.90
38458;DHT22;24239;48.058;10.486;2023-04-24T09:51:35;6.80;99.90
38458;DHT22;24239;48.058;10.486;2023-04-24T09:54:02;6.90;99.90
38458;DHT22;24239;48.058;10.486;2023-04-24T09:56:29;7.30;99.90
38458;DHT22;24239;48.058;10.486;2023-04-24T09:59:04;7.50;99.90
38458;DHT22;24239;48.058;10.486;2023-04-24T10:01:30;7.70;99.90
38458;DHT22;24239;48.058;10.486;2023-04-24T10:03:56;7.90;99.90
38458;DHT22;24239;48.058;10.486;2023-04-24T10:06:22;8.10;99.90
38458;DHT22;24239;48.058;10.486;2023-04-24T10:08:48;8.20;99.90
38458;DHT22;24239;48.058;10.486;2023-04-24T10:11:13;8.40;99.90
38458;DHT22;24239;48.058;10.486;2023-04-24T10:13:39;8.60;99.90
38458;DHT22;24239;48.058;10.486;2023-04-24T10:16:05;9.00;99.90
38458;DHT22;24239;48.058;10.486;2023-04-24T10:18:31;9.30;99.90
38458;DHT22;24239;48.058;10.486;2023-04-24T10:20:58;9.50;99.90
38458;DHT22;24239;48.058;10.486;2023-04-24T10:23:25;9.70;99.90
38458;DHT22;24239;48.058;10.486;2023-04-24T10:25:51;9.80;99.90
38458;DHT22;24239;48.058;10.486;2023-04-24T10:28:18;9.90;99.90
38458;DHT22;24239;48.058;10.486;2023-04-24T10:30:44;9.80;99.90
38458;DHT22;24239;48.058;10.486;2023-04-24T10:33:10;9.50;99.90
38458;DHT22;24239;48.058;10.486;2023-04-24T10:35:39;9.50;99.90
38458;DHT22;24239;48.058;10.486;2023-04-24T10:38:09;9.70;99.90
38458;DHT22;24239;48.058;10.486;2023-04-24T10:40:39;9.70;99.90
38458;DHT22;24239;48.058;10.486;2023-04-24T10:43:06;9.70;99.90
38458;DHT22;24239;48.058;10.486;2023-04-24T10:45:37;9.70;99.90
38458;DHT22;24239;48.058;10.486;2023-04-24T10:48:04;9.90;99.90
38458;DHT22;24239;48.058;10.486;2023-04-24T10:50:51;10.00;99.90
38458;DHT22;24239;48.058;10.486;2023-04-24T10:53:18;10.00;99.90
38458;DHT22;24239;48.058;10.486;2023-04-24T10:58:10;10.20;99.90
38458;DHT22;24239;48.058;10.486;2023-04-24T11:00:37;10.40;99.90
38458;DHT22;24239;48.058;10.486;2023-04-24T11:03:09;10.50;99.90
38458;DHT22;24239;48.058;10.486;2023-04-24T11:06:04;10.70;99.90
38458;DHT22;24239;48.058;10.486;2023-04-24T11:08:32;11.00;99.90
38458;DHT22;24239;48.058;10.486;2023-04-24T11:11:02;11.20;99.90
38458;DHT22;24239;48.058;10.486;2023-04-24T11:16:14;11.40;99.90
38458;DHT22;24239;48.058;10.486;2023-04-24T11:18:41;11.40;99.90
38458;DHT22;24239;48.058;10.486;2023-04-24T11:21:11;11.70;99.90
38458;DHT22;24239;48.058;10.486;2023-04-24T11:23:37;11.70;99.90
38458;DHT22;24239;48.058;10.486;2023-04-24T11:26:10;11.70;99.90
38458;DHT22;24239;48.058;10.486;2023-04-24T11:28:35;11.80;99.90
38458;DHT22;24239;48.058;10.486;2023-04-24T11:33:46;12.20;99.90
38458;DHT22;24239;48.058;10.486;2023-04-24T11:36:13;12.20;99.90
38458;DHT22;24239;48.058;10.486;2023-04-24T11:38:39;12.10;99.90
38458;DHT22;24239;48.058;10.486;2023-04-24T11:41:05;12.10;99.90
38458;DHT22;24239;48.058;10.486;2023-04-24T11:43:32;11.90;99.90
38458;DHT22;24239;48.058;10.486;2023-04-24T11:45:59;11.80;99.90
38458;DHT22;24239;48.058;10.486;2023-04-24T11:48:25;11.90;99.90
38458;DHT22;24239;48.058;10.486;2023-04-24T11:50:51;12.00;99.90
38458;DHT22;24239;48.058;10.486;2023-04-24T11:53:18;12.00;99.90
38458;DHT22;24239;48.058;10.486;2023-04-24T11:55:44;11.80;99.90
38458;DHT22;24239;48.058;10.486;2023-04-24T11:58:13;11.80;99.90
38458;DHT22;24239;48.058;10.486;2023-04-24T12:00:38;11.90;99.90
38458;DHT22;24239;48.058;10.486;2023-04-24T12:03:05;12.00;99.90
38458;DHT22;24239;48.058;10.486;2023-04-24T12:05:31;11.90;99.90
38458;DHT22;24239;48.058;10.486;2023-04-24T12:07:57;12.10;99.90
38458;DHT22;24239;48.058;10.486;2023-04-24T12:10:23;12.30;99.90
38458;DHT22;24239;48.058;10.486;2023-04-24T12:12:49;12.50;99.30
38458;DHT22;24239;48.058;10.486;2023-04-24T12:15:17;12.60;99.30
38458;DHT22;24239;48.058;10.486;2023-04-24T12:17:43;12.60;99.90
38458;DHT22;24239;48.058;10.486;2023-04-24T12:20:09;12.50;99.20
38458;DHT22;24239;48.058;10.486;2023-04-24T12:22:44;12.60;99.90
38458;DHT22;24239;48.058;10.486;2023-04-24T12:25:14;12.50;99.90
38458;DHT22;24239;48.058;10.486;2023-04-24T12:27:40;12.40;99.90
38458;DHT22;24239;48.058;10.486;2023-04-24T12:30:09;12.50;99.90
38458;DHT22;24239;48.058;10.486;2023-04-24T12:32:35;12.50;99.50
38458;DHT22;24239;48.058;10.486;2023-04-24T12:35:00;12.60;99.10
38458;DHT22;24239;48.058;10.486;2023-04-24T12:37:32;12.90;99.40
38458;DHT22;24239;48.058;10.486;2023-04-24T12:42:28;13.30;99.40
38458;DHT22;24239;48.058;10.486;2023-04-24T12:45:01;13.30;98.20
38458;DHT22;24239;48.058;10.486;2023-04-24T12:47:28;12.90;97.60
38458;DHT22;24239;48.058;10.486;2023-04-24T12:49:54;12.80;98.90
38458;DHT22;24239;48.058;10.486;2023-04-24T12:52:21;12.80;99.50
38458;DHT22;24239;48.058;10.486;2023-04-24T12:54:47;13.00;99.60
38458;DHT22;24239;48.058;10.486;2023-04-24T12:57:12;13.10;97.90
38458;DHT22;24239;48.058;10.486;2023-04-24T12:59:41;13.10;97.90
38458;DHT22;24239;48.058;10.486;2023-04-24T13:02:07;12.90;97.20
38458;DHT22;24239;48.058;10.486;2023-04-24T13:04:34;12.60;97.60
38458;DHT22;24239;48.058;10.486;2023-04-24T13:07:00;12.60;98.00
38458;DHT22;24239;48.058;10.486;2023-04-24T13:09:25;12.70;98.50
38458;DHT22;24239;48.058;10.486;2023-04-24T13:11:51;12.90;98.20
38458;DHT22;24239;48.058;10.486;2023-04-24T13:14:17;13.10;99.20
38458;DHT22;24239;48.058;10.486;2023-04-24T13:16:43;13.50;97.50
38458;DHT22;24239;48.058;10.486;2023-04-24T13:19:09;13.60;97.50
38458;DHT22;24239;48.058;10.486;2023-04-24T13:21:35;13.60;96.40
38458;DHT22;24239;48.058;10.486;2023-04-24T13:24:03;13.40;97.10
38458;DHT22;24239;48.058;10.486;2023-04-24T13:26:30;13.40;96.30
38458;DHT22;24239;48.058;10.486;2023-04-24T13:28:56;13.10;96.30
38458;DHT22;24239;48.058;10.486;2023-04-24T13:31:21;12.90;96.10
38458;DHT22;24239;48.058;10.486;2023-04-24T13:33:47;12.90;97.00
38458;DHT22;24239;48.058;10.486;2023-04-24T13:36:13;12.80;98.30
38458;DHT22;24239;48.058;10.486;2023-04-24T13:38:39;13.00;98.20
38458;DHT22;24239;48.058;10.486;2023-04-24T13:41:04;12.90;98.40
38458;DHT22;24239;48.058;10.486;2023-04-24T13:43:30;12.90;98.40
38458;DHT22;24239;48.058;10.486;2023-04-24T13:45:56;12.80;96.40
38458;DHT22;24239;48.058;10.486;2023-04-24T13:48:21;12.70;96.00
38458;DHT22;24239;48.058;10.486;2023-04-24T13:50:47;12.60;96.00
38458;DHT22;24239;48.058;10.486;2023-04-24T13:53:16;12.70;97.30
38458;DHT22;24239;48.058;10.486;2023-04-24T13:55:41;12.80;96.00
38458;DHT22;24239;48.058;10.486;2023-04-24T13:58:07;12.90;95.60
38458;DHT22;24239;48.058;10.486;2023-04-24T14:00:33;12.90;95.50
38458;DHT22;24239;48.058;10.486;2023-04-24T14:02:59;12.90;94.70
38458;DHT22;24239;48.058;10.486;2023-04-24T14:05:25;13.00;95.90
38458;DHT22;24239;48.058;10.486;2023-04-24T14:07:51;12.90;96.40
38458;DHT22;24239;48.058;10.486;2023-04-24T14:10:16;12.80;95.00
38458;DHT22;24239;48.058;10.486;2023-04-24T14:12:42;12.60;96.30
38458;DHT22;24239;48.058;10.486;2023-04-24T14:15:08;12.50;95.60
38458;DHT22;24239;48.058;10.486;2023-04-24T14:17:34;12.50;96.20
38458;DHT22;24239;48.058;10.486;2023-04-24T14:20:00;12.50;94.70
38458;DHT22;24239;48.058;10.486;2023-04-24T14:22:26;13.00;95.30
38458;DHT22;24239;48.058;10.486;2023-04-24T14:24:52;13.10;95.60
38458;DHT22;24239;48.058;10.486;2023-04-24T14:27:18;13.30;95.20
38458;DHT22;24239;48.058;10.486;2023-04-24T14:29:44;13.50;94.30
38458;DHT22;24239;48.058;10.486;2023-04-24T14:32:10;13.30;94.90
38458;DHT22;24239;48.058;10.486;2023-04-24T14:34:36;12.90;94.90
38458;DHT22;24239;48.058;10.486;2023-04-24T14:37:08;12.60;96.10
38458;DHT22;24239;48.058;10.486;2023-04-24T14:39:33;12.50;95.40
38458;DHT22;24239;48.058;10.486;2023-04-24T14:41:59;12.50;96.00
38458;DHT22;24239;48.058;10.486;2023-04-24T14:44:26;12.40;95.50
38458;DHT22;24239;48.058;10.486;2023-04-24T14:46:52;12.50;95.40
38458;DHT22;24239;48.058;10.486;2023-04-24T14:49:20;12.50;94.60
38458;DHT22;24239;48.058;10.486;2023-04-24T14:51:46;12.70;94.90
38458;DHT22;24239;48.058;10.486;2023-04-24T14:54:12;12.70;94.40
38458;DHT22;24239;48.058;10.486;2023-04-24T14:56:40;12.70;93.80
38458;DHT22;24239;48.058;10.486;2023-04-24T14:59:06;12.50;94.40
38458;DHT22;24239;48.058;10.486;2023-04-24T15:01:32;12.40;93.80
38458;DHT22;24239;48.058;10.486;2023-04-24T15:03:58;12.40;93.30
38458;DHT22;24239;48.058;10.486;2023-04-24T15:06:26;12.30;93.60
38458;DHT22;24239;48.058;10.486;2023-04-24T15:08:52;12.20;94.20
38458;DHT22;24239;48.058;10.486;2023-04-24T15:11:18;12.30;95.40
38458;DHT22;24239;48.058;10.486;2023-04-24T15:13:43;12.50;95.40
38458;DHT22;24239;48.058;10.486;2023-04-24T15:16:12;12.60;95.90
38458;DHT22;24239;48.058;10.486;2023-04-24T15:18:38;12.50;95.00
38458;DHT22;24239;48.058;10.486;2023-04-24T15:21:04;12.50;95.50
38458;DHT22;24239;48.058;10.486;2023-04-24T15:23:30;12.60;94.90
38458;DHT22;24239;48.058;10.486;2023-04-24T15:25:56;12.60;94.80
38458;DHT22;24239;48.058;10.486;2023-04-24T15:28:23;12.70;95.40
38458;DHT22;24239;48.058;10.486;2023-04-24T15:30:48;12.60;95.90
38458;DHT22;24239;48.058;10.486;2023-04-24T15:33:16;12.60;95.20